sensor_id;sensor_type;location;lat;lon;timestamp;P1;durP1;ratioP1;P2;durP2;ratioP2
2656;SDS011;1338;48.176;11.792;2023-06-22T00:00:36;5.63;;;3.60;;
2656;SDS011;1338;48.176;11.792;2023-06-22T00:03:05;3.93;;;3.63;;
2656;SDS011;1338;48.176;11.792;2023-06-22T00:05:37;4.20;;;3.37;;
2656;SDS011;1338;48.176;11.792;2023-06-22T00:08:05;3.40;;;3.03;;
2656;SDS011;1338;48.176;11.792;2023-06-22T00:10:33;3.50;;;3.20;;
2656;SDS011;1338;48.176;11.792;2023-06-22T00:13:01;3.80;;;3.50;;
2656;SDS011;1338;48.176;11.792;2023-06-22T00:15:30;3.87;;;3.47;;
2656;SDS011;1338;48.176;11.792;2023-06-22T00:17:58;4.10;;;3.80;;
2656;SDS011;1338;48.176;11.792;2023-06-22T00:20:27;4.40;;;4.00;;
2656;SDS011;1338;48.176;11.792;2023-06-22T00:22:59;3.93;;;3.00;;
2656;SDS011;1338;48.176;11.792;2023-06-22T00:25:27;4.00;;;3.60;;
2656;SDS011;1338;48.176;11.792;2023-06-22T00:27:55;4.47;;;3.27;;
2656;SDS011;1338;48.176;11.792;2023-06-22T00:30:23;3.77;;;3.47;;
2656;SDS011;1338;48.176;11.792;2023-06-22T00:32:56;4.13;;;3.73;;
2656;SDS011;1338;48.176;11.792;2023-06-22T00:35:25;4.07;;;3.53;;
2656;SDS011;1338;48.176;11.792;2023-06-22T00:37:55;4.40;;;3.90;;
2656;SDS011;1338;48.176;11.792;2023-06-22T00:40:30;4.10;;;3.70;;
2656;SDS011;1338;48.176;11.792;2023-06-22T00:43:00;3.93;;;3.50;;
2656;SDS011;1338;48.176;11.792;2023-06-22T00:45:28;5.90;;;3.60;;
2656;SDS011;1338;48.176;11.792;2023-06-22T00:47:56;4.03;;;3.60;;
2656;SDS011;1338;48.176;11.792;2023-06-22T00:50:26;6.90;;;3.97;;
2656;SDS011;1338;48.176;11.792;2023-06-22T00:52:57;4.40;;;3.57;;
2656;SDS011;1338;48.176;11.792;2023-06-22T00:55:29;7.93;;;3.60;;
2656;SDS011;1338;48.176;11.792;2023-06-22T00:57:58;4.23;;;3.33;;
2656;SDS011;1338;48.176;11.792;2023-06-22T01:00:26;3.80;;;3.47;;
2656;SDS011;1338;48.176;11.792;2023-06-22T01:02:55;3.23;;;2.93;;
2656;SDS011;1338;48.176;11.792;2023-06-22T01:05:24;4.10;;;3.40;;
2656;SDS011;1338;48.176;11.792;2023-06-22T01:08:00;4.80;;;3.80;;
2656;SDS011;1338;48.176;11.792;2023-06-22T01:10:36;3.70;;;3.40;;
2656;SDS011;1338;48.176;11.792;2023-06-22T01:13:11;3.47;;;3.17;;
2656;SDS011;1338;48.176;11.792;2023-06-22T01:15:46;4.67;;;4.27;;
2656;SDS011;1338;48.176;11.792;2023-06-22T01:18:17;7.00;;;4.83;;
2656;SDS011;1338;48.176;11.792;2023-06-22T01:20:48;5.20;;;4.20;;
2656;SDS011;1338;48.176;11.792;2023-06-22T01:23:20;4.13;;;3.40;;
2656;SDS011;1338;48.176;11.792;2023-06-22T01:25:59;4.80;;;3.80;;
2656;SDS011;1338;48.176;11.792;2023-06-22T01:28:39;4.13;;;3.70;;
2656;SDS011;1338;48.176;11.792;2023-06-22T01:31:14;4.40;;;4.00;;
2656;SDS011;1338;48.176;11.792;2023-06-22T01:33:47;3.50;;;3.20;;
2656;SDS011;1338;48.176;11.792;2023-06-22T01:36:18;4.77;;;4.10;;
2656;SDS011;1338;48.176;11.792;2023-06-22T01:38:47;4.20;;;3.80;;
2656;SDS011;1338;48.176;11.792;2023-06-22T01:41:17;4.87;;;3.97;;
2656;SDS011;1338;48.176;11.792;2023-06-22T01:43:48;5.50;;;3.83;;
2656;SDS011;1338;48.176;11.792;2023-06-22T01:46:19;3.87;;;3.57;;
2656;SDS011;1338;48.176;11.792;2023-06-22T01:48:48;7.70;;;4.37;;
2656;SDS011;1338;48.176;11.792;2023-06-22T01:51:17;4.40;;;4.00;;
2656;SDS011;1338;48.176;11.792;2023-06-22T01:53:45;4.30;;;3.90;;
2656;SDS011;1338;48.176;11.792;2023-06-22T01:56:15;6.60;;;4.00;;
2656;SDS011;1338;48.176;11.792;2023-06-22T01:58:47;5.33;;;4.63;;
2656;SDS011;1338;48.176;11.792;2023-06-22T02:01:20;8.33;;;4.47;;
2656;SDS011;1338;48.176;11.792;2023-06-22T02:03:59;4.83;;;4.20;;
2656;SDS011;1338;48.176;11.792;2023-06-22T02:06:33;4.67;;;4.23;;
2656;SDS011;1338;48.176;11.792;2023-06-22T02:09:06;4.67;;;4.27;;
2656;SDS011;1338;48.176;11.792;2023-06-22T02:11:39;5.47;;;4.47;;
2656;SDS011;1338;48.176;11.792;2023-06-22T02:14:11;5.27;;;4.07;;
2656;SDS011;1338;48.176;11.792;2023-06-22T02:16:41;5.70;;;4.33;;
2656;SDS011;1338;48.176;11.792;2023-06-22T02:19:10;4.47;;;4.07;;
2656;SDS011;1338;48.176;11.792;2023-06-22T02:21:38;5.03;;;4.40;;
2656;SDS011;1338;48.176;11.792;2023-06-22T02:24:06;4.90;;;4.10;;
2656;SDS011;1338;48.176;11.792;2023-06-22T02:26:34;5.73;;;4.40;;
2656;SDS011;1338;48.176;11.792;2023-06-22T02:29:06;7.83;;;4.07;;
2656;SDS011;1338;48.176;11.792;2023-06-22T02:31:35;6.00;;;4.97;;
2656;SDS011;1338;48.176;11.792;2023-06-22T02:34:03;5.60;;;4.57;;
2656;SDS011;1338;48.176;11.792;2023-06-22T02:36:32;5.50;;;4.70;;
2656;SDS011;1338;48.176;11.792;2023-06-22T02:39:00;6.30;;;4.33;;
2656;SDS011;1338;48.176;11.792;2023-06-22T02:41:30;4.60;;;3.97;;
2656;SDS011;1338;48.176;11.792;2023-06-22T02:43:58;6.10;;;4.47;;
2656;SDS011;1338;48.176;11.792;2023-06-22T02:46:26;8.60;;;5.10;;
2656;SDS011;1338;48.176;11.792;2023-06-22T02:48:56;5.27;;;4.53;;
2656;SDS011;1338;48.176;11.792;2023-06-22T02:51:24;5.50;;;4.90;;
2656;SDS011;1338;48.176;11.792;2023-06-22T02:53:52;7.93;;;4.90;;
2656;SDS011;1338;48.176;11.792;2023-06-22T02:56:25;5.30;;;4.80;;
2656;SDS011;1338;48.176;11.792;2023-06-22T02:58:57;7.50;;;5.30;;
2656;SDS011;1338;48.176;11.792;2023-06-22T03:01:32;6.70;;;5.93;;
2656;SDS011;1338;48.176;11.792;2023-06-22T03:04:19;5.10;;;4.53;;
2656;SDS011;1338;48.176;11.792;2023-06-22T03:06:47;5.93;;;4.63;;
2656;SDS011;1338;48.176;11.792;2023-06-22T03:09:17;8.03;;;4.70;;
2656;SDS011;1338;48.176;11.792;2023-06-22T03:11:45;6.60;;;4.63;;
2656;SDS011;1338;48.176;11.792;2023-06-22T03:14:14;5.83;;;4.10;;
2656;SDS011;1338;48.176;11.792;2023-06-22T03:16:42;5.07;;;4.57;;
2656;SDS011;1338;48.176;11.792;2023-06-22T03:19:11;4.40;;;4.00;;
2656;SDS011;1338;48.176;11.792;2023-06-22T03:21:40;7.00;;;6.40;;
2656;SDS011;1338;48.176;11.792;2023-06-22T03:24:09;8.60;;;4.77;;
2656;SDS011;1338;48.176;11.792;2023-06-22T03:26:38;5.73;;;4.20;;
2656;SDS011;1338;48.176;11.792;2023-06-22T03:29:07;6.10;;;4.30;;
2656;SDS011;1338;48.176;11.792;2023-06-22T03:31:35;4.83;;;3.77;;
2656;SDS011;1338;48.176;11.792;2023-06-22T03:34:04;4.40;;;4.00;;
2656;SDS011;1338;48.176;11.792;2023-06-22T03:36:32;5.47;;;4.07;;
2656;SDS011;1338;48.176;11.792;2023-06-22T03:39:02;4.43;;;4.03;;
2656;SDS011;1338;48.176;11.792;2023-06-22T03:41:30;6.20;;;3.63;;
2656;SDS011;1338;48.176;11.792;2023-06-22T03:43:59;4.50;;;3.77;;
2656;SDS011;1338;48.176;11.792;2023-06-22T03:46:27;4.30;;;3.90;;
2656;SDS011;1338;48.176;11.792;2023-06-22T03:48:55;6.47;;;4.57;;
2656;SDS011;1338;48.176;11.792;2023-06-22T03:51:23;11.80;;;5.07;;
2656;SDS011;1338;48.176;11.792;2023-06-22T03:53:51;5.17;;;4.03;;
2656;SDS011;1338;48.176;11.792;2023-06-22T03:56:21;5.30;;;4.43;;
2656;SDS011;1338;48.176;11.792;2023-06-22T03:58:49;5.70;;;4.30;;
2656;SDS011;1338;48.176;11.792;2023-06-22T04:01:17;5.30;;;4.80;;
2656;SDS011;1338;48.176;11.792;2023-06-22T04:03:46;5.67;;;4.70;;
2656;SDS011;1338;48.176;11.792;2023-06-22T04:06:16;8.73;;;4.77;;
2656;SDS011;1338;48.176;11.792;2023-06-22T04:08:45;5.70;;;4.13;;
2656;SDS011;1338;48.176;11.792;2023-06-22T04:11:17;5.90;;;4.70;;
2656;SDS011;1338;48.176;11.792;2023-06-22T04:13:47;6.17;;;4.40;;
2656;SDS011;1338;48.176;11.792;2023-06-22T04:16:17;4.83;;;4.33;;
2656;SDS011;1338;48.176;11.792;2023-06-22T04:18:45;4.17;;;3.77;;
2656;SDS011;1338;48.176;11.792;2023-06-22T04:21:14;4.87;;;4.00;;
2656;SDS011;1338;48.176;11.792;2023-06-22T04:23:42;5.50;;;4.23;;
2656;SDS011;1338;48.176;11.792;2023-06-22T04:26:10;6.43;;;4.57;;
2656;SDS011;1338;48.176;11.792;2023-06-22T04:28:38;5.40;;;4.40;;
2656;SDS011;1338;48.176;11.792;2023-06-22T04:31:08;7.07;;;5.03;;
2656;SDS011;1338;48.176;11.792;2023-06-22T04:33:37;6.97;;;5.40;;
2656;SDS011;1338;48.176;11.792;2023-06-22T04:36:07;5.77;;;4.60;;
2656;SDS011;1338;48.176;11.792;2023-06-22T04:38:35;5.63;;;5.03;;
2656;SDS011;1338;48.176;11.792;2023-06-22T04:41:03;5.87;;;4.60;;
2656;SDS011;1338;48.176;11.792;2023-06-22T04:43:31;5.70;;;5.20;;
2656;SDS011;1338;48.176;11.792;2023-06-22T04:46:01;7.47;;;4.80;;
2656;SDS011;1338;48.176;11.792;2023-06-22T04:48:31;11.53;;;5.90;;
2656;SDS011;1338;48.176;11.792;2023-06-22T04:51:00;5.97;;;5.47;;
2656;SDS011;1338;48.176;11.792;2023-06-22T04:53:30;9.40;;;5.00;;
2656;SDS011;1338;48.176;11.792;2023-06-22T04:55:58;6.77;;;4.50;;
2656;SDS011;1338;48.176;11.792;2023-06-22T04:58:27;6.77;;;5.30;;
2656;SDS011;1338;48.176;11.792;2023-06-22T05:00:58;7.77;;;4.50;;
2656;SDS011;1338;48.176;11.792;2023-06-22T05:03:27;3.87;;;3.50;;
2656;SDS011;1338;48.176;11.792;2023-06-22T05:05:56;5.07;;;4.57;;
2656;SDS011;1338;48.176;11.792;2023-06-22T05:08:24;4.33;;;3.93;;
2656;SDS011;1338;48.176;11.792;2023-06-22T05:10:55;5.03;;;4.20;;
2656;SDS011;1338;48.176;11.792;2023-06-22T05:13:30;6.37;;;4.30;;
2656;SDS011;1338;48.176;11.792;2023-06-22T05:15:58;5.63;;;4.17;;
2656;SDS011;1338;48.176;11.792;2023-06-22T05:18:29;5.20;;;4.57;;
2656;SDS011;1338;48.176;11.792;2023-06-22T05:20:59;5.67;;;5.17;;
2656;SDS011;1338;48.176;11.792;2023-06-22T05:23:27;6.30;;;4.83;;
2656;SDS011;1338;48.176;11.792;2023-06-22T05:25:56;6.10;;;4.53;;
2656;SDS011;1338;48.176;11.792;2023-06-22T05:28:24;5.40;;;4.77;;
2656;SDS011;1338;48.176;11.792;2023-06-22T05:30:53;6.37;;;4.93;;
2656;SDS011;1338;48.176;11.792;2023-06-22T05:33:22;6.57;;;4.60;;
2656;SDS011;1338;48.176;11.792;2023-06-22T05:35:50;5.37;;;4.40;;
2656;SDS011;1338;48.176;11.792;2023-06-22T05:38:20;5.80;;;4.90;;
2656;SDS011;1338;48.176;11.792;2023-06-22T05:40:48;4.37;;;3.80;;
2656;SDS011;1338;48.176;11.792;2023-06-22T05:43:17;5.00;;;4.53;;
2656;SDS011;1338;48.176;11.792;2023-06-22T05:45:45;6.00;;;4.80;;
2656;SDS011;1338;48.176;11.792;2023-06-22T05:48:13;4.93;;;4.17;;
2656;SDS011;1338;48.176;11.792;2023-06-22T05:50:41;5.10;;;4.57;;
2656;SDS011;1338;48.176;11.792;2023-06-22T05:53:10;4.93;;;4.43;;
2656;SDS011;1338;48.176;11.792;2023-06-22T05:55:39;5.50;;;4.87;;
2656;SDS011;1338;48.176;11.792;2023-06-22T05:58:08;5.40;;;4.90;;
2656;SDS011;1338;48.176;11.792;2023-06-22T06:00:37;6.07;;;5.43;;
2656;SDS011;1338;48.176;11.792;2023-06-22T06:03:06;5.63;;;5.07;;
2656;SDS011;1338;48.176;11.792;2023-06-22T06:05:35;5.17;;;4.67;;
2656;SDS011;1338;48.176;11.792;2023-06-22T06:08:05;6.40;;;5.17;;
2656;SDS011;1338;48.176;11.792;2023-06-22T06:10:33;5.07;;;4.30;;
2656;SDS011;1338;48.176;11.792;2023-06-22T06:13:04;7.40;;;4.73;;
2656;SDS011;1338;48.176;11.792;2023-06-22T06:15:33;4.80;;;4.27;;
2656;SDS011;1338;48.176;11.792;2023-06-22T06:18:02;5.70;;;5.07;;
2656;SDS011;1338;48.176;11.792;2023-06-22T06:20:32;6.57;;;4.50;;
2656;SDS011;1338;48.176;11.792;2023-06-22T06:23:00;5.30;;;4.50;;
2656;SDS011;1338;48.176;11.792;2023-06-22T06:25:29;6.20;;;4.83;;
2656;SDS011;1338;48.176;11.792;2023-06-22T06:27:57;5.00;;;4.50;;
2656;SDS011;1338;48.176;11.792;2023-06-22T06:30:27;6.13;;;5.30;;
2656;SDS011;1338;48.176;11.792;2023-06-22T06:32:55;8.03;;;5.33;;
2656;SDS011;1338;48.176;11.792;2023-06-22T06:35:23;7.07;;;5.87;;
2656;SDS011;1338;48.176;11.792;2023-06-22T06:37:54;7.20;;;5.27;;
2656;SDS011;1338;48.176;11.792;2023-06-22T06:40:22;5.53;;;5.03;;
2656;SDS011;1338;48.176;11.792;2023-06-22T06:42:50;13.00;;;5.60;;
2656;SDS011;1338;48.176;11.792;2023-06-22T06:45:19;6.37;;;5.00;;
2656;SDS011;1338;48.176;11.792;2023-06-22T06:47:51;7.20;;;5.90;;
2656;SDS011;1338;48.176;11.792;2023-06-22T06:50:20;7.00;;;5.80;;
2656;SDS011;1338;48.176;11.792;2023-06-22T06:52:49;7.00;;;6.33;;
2656;SDS011;1338;48.176;11.792;2023-06-22T06:55:17;6.57;;;5.53;;
2656;SDS011;1338;48.176;11.792;2023-06-22T06:57:46;6.40;;;4.87;;
2656;SDS011;1338;48.176;11.792;2023-06-22T07:00:16;6.70;;;6.10;;
2656;SDS011;1338;48.176;11.792;2023-06-22T07:02:45;6.73;;;5.67;;
2656;SDS011;1338;48.176;11.792;2023-06-22T07:05:16;7.00;;;5.70;;
2656;SDS011;1338;48.176;11.792;2023-06-22T07:07:44;6.20;;;5.10;;
2656;SDS011;1338;48.176;11.792;2023-06-22T07:10:13;6.43;;;5.63;;
2656;SDS011;1338;48.176;11.792;2023-06-22T07:12:41;6.67;;;4.97;;
2656;SDS011;1338;48.176;11.792;2023-06-22T07:15:10;6.00;;;5.37;;
2656;SDS011;1338;48.176;11.792;2023-06-22T07:17:39;6.80;;;5.70;;
2656;SDS011;1338;48.176;11.792;2023-06-22T07:20:08;6.73;;;5.33;;
2656;SDS011;1338;48.176;11.792;2023-06-22T07:22:40;9.43;;;5.97;;
2656;SDS011;1338;48.176;11.792;2023-06-22T07:25:10;6.20;;;5.60;;
2656;SDS011;1338;48.176;11.792;2023-06-22T07:27:44;8.87;;;6.50;;
2656;SDS011;1338;48.176;11.792;2023-06-22T07:30:12;6.57;;;5.97;;
2656;SDS011;1338;48.176;11.792;2023-06-22T07:32:41;6.60;;;6.00;;
2656;SDS011;1338;48.176;11.792;2023-06-22T07:35:09;6.30;;;5.80;;
2656;SDS011;1338;48.176;11.792;2023-06-22T07:37:37;6.63;;;5.30;;
2656;SDS011;1338;48.176;11.792;2023-06-22T07:40:08;6.73;;;6.00;;
2656;SDS011;1338;48.176;11.792;2023-06-22T07:42:36;7.10;;;6.40;;
2656;SDS011;1338;48.176;11.792;2023-06-22T07:45:05;5.93;;;5.27;;
2656;SDS011;1338;48.176;11.792;2023-06-22T07:47:35;5.80;;;5.30;;
2656;SDS011;1338;48.176;11.792;2023-06-22T07:50:03;6.70;;;6.00;;
2656;SDS011;1338;48.176;11.792;2023-06-22T07:52:34;7.10;;;6.40;;
2656;SDS011;1338;48.176;11.792;2023-06-22T07:55:02;6.67;;;5.50;;
2656;SDS011;1338;48.176;11.792;2023-06-22T07:57:35;6.23;;;5.30;;
2656;SDS011;1338;48.176;11.792;2023-06-22T08:00:04;6.57;;;5.93;;
2656;SDS011;1338;48.176;11.792;2023-06-22T08:02:38;8.13;;;5.57;;
2656;SDS011;1338;48.176;11.792;2023-06-22T08:05:08;6.73;;;6.13;;
2656;SDS011;1338;48.176;11.792;2023-06-22T08:07:40;6.30;;;5.20;;
2656;SDS011;1338;48.176;11.792;2023-06-22T08:10:12;6.90;;;6.03;;
2656;SDS011;1338;48.176;11.792;2023-06-22T08:12:42;6.20;;;5.60;;
2656;SDS011;1338;48.176;11.792;2023-06-22T08:15:10;5.80;;;5.30;;
2656;SDS011;1338;48.176;11.792;2023-06-22T08:17:38;7.07;;;6.00;;
2656;SDS011;1338;48.176;11.792;2023-06-22T08:20:07;6.37;;;5.70;;
2656;SDS011;1338;48.176;11.792;2023-06-22T08:22:38;7.20;;;5.80;;
2656;SDS011;1338;48.176;11.792;2023-06-22T08:25:07;6.23;;;5.67;;
2656;SDS011;1338;48.176;11.792;2023-06-22T08:27:37;6.70;;;6.00;;
2656;SDS011;1338;48.176;11.792;2023-06-22T08:30:07;6.20;;;5.60;;
2656;SDS011;1338;48.176;11.792;2023-06-22T08:32:37;7.20;;;6.50;;
2656;SDS011;1338;48.176;11.792;2023-06-22T08:35:06;6.57;;;5.80;;
2656;SDS011;1338;48.176;11.792;2023-06-22T08:37:35;6.17;;;5.50;;
2656;SDS011;1338;48.176;11.792;2023-06-22T08:40:06;7.70;;;6.90;;
2656;SDS011;1338;48.176;11.792;2023-06-22T08:42:37;7.97;;;5.60;;
2656;SDS011;1338;48.176;11.792;2023-06-22T08:45:10;7.40;;;6.20;;
2656;SDS011;1338;48.176;11.792;2023-06-22T08:47:38;8.53;;;6.43;;
2656;SDS011;1338;48.176;11.792;2023-06-22T08:50:08;5.93;;;5.40;;
2656;SDS011;1338;48.176;11.792;2023-06-22T08:52:36;6.73;;;6.10;;
2656;SDS011;1338;48.176;11.792;2023-06-22T08:55:08;6.30;;;5.80;;
2656;SDS011;1338;48.176;11.792;2023-06-22T08:57:37;10.87;;;6.77;;
2656;SDS011;1338;48.176;11.792;2023-06-22T09:00:06;8.07;;;5.70;;
2656;SDS011;1338;48.176;11.792;2023-06-22T09:02:48;6.20;;;5.60;;
2656;SDS011;1338;48.176;11.792;2023-06-22T09:05:16;6.90;;;6.17;;
2656;SDS011;1338;48.176;11.792;2023-06-22T09:07:45;7.07;;;5.23;;
2656;SDS011;1338;48.176;11.792;2023-06-22T09:10:13;7.13;;;5.60;;
2656;SDS011;1338;48.176;11.792;2023-06-22T09:12:41;6.60;;;6.00;;
2656;SDS011;1338;48.176;11.792;2023-06-22T09:15:10;7.03;;;6.30;;
2656;SDS011;1338;48.176;11.792;2023-06-22T09:17:43;7.50;;;6.33;;
2656;SDS011;1338;48.176;11.792;2023-06-22T09:20:15;6.60;;;5.70;;
2656;SDS011;1338;48.176;11.792;2023-06-22T09:22:46;6.43;;;5.40;;
2656;SDS011;1338;48.176;11.792;2023-06-22T09:25:15;5.90;;;5.30;;
2656;SDS011;1338;48.176;11.792;2023-06-22T09:27:43;7.03;;;5.80;;
2656;SDS011;1338;48.176;11.792;2023-06-22T09:30:11;6.63;;;6.00;;
2656;SDS011;1338;48.176;11.792;2023-06-22T09:32:39;6.53;;;5.60;;
2656;SDS011;1338;48.176;11.792;2023-06-22T09:35:08;6.80;;;6.10;;
2656;SDS011;1338;48.176;11.792;2023-06-22T09:37:40;7.20;;;6.00;;
2656;SDS011;1338;48.176;11.792;2023-06-22T09:40:09;7.60;;;5.37;;
2656;SDS011;1338;48.176;11.792;2023-06-22T09:42:41;6.83;;;5.77;;
2656;SDS011;1338;48.176;11.792;2023-06-22T09:45:09;7.90;;;5.97;;
2656;SDS011;1338;48.176;11.792;2023-06-22T09:47:37;6.37;;;5.53;;
2656;SDS011;1338;48.176;11.792;2023-06-22T09:50:06;8.10;;;5.97;;
2656;SDS011;1338;48.176;11.792;2023-06-22T09:52:35;8.63;;;6.87;;
2656;SDS011;1338;48.176;11.792;2023-06-22T09:55:07;7.20;;;5.57;;
2656;SDS011;1338;48.176;11.792;2023-06-22T09:57:38;7.10;;;6.40;;
2656;SDS011;1338;48.176;11.792;2023-06-22T10:00:06;6.50;;;5.90;;
2656;SDS011;1338;48.176;11.792;2023-06-22T10:02:38;7.13;;;6.17;;
2656;SDS011;1338;48.176;11.792;2023-06-22T10:05:06;6.73;;;6.07;;
2656;SDS011;1338;48.176;11.792;2023-06-22T10:07:35;10.03;;;6.10;;
2656;SDS011;1338;48.176;11.792;2023-06-22T10:10:08;7.10;;;6.40;;
2656;SDS011;1338;48.176;11.792;2023-06-22T10:12:40;7.67;;;6.77;;
2656;SDS011;1338;48.176;11.792;2023-06-22T10:15:09;6.50;;;5.87;;
2656;SDS011;1338;48.176;11.792;2023-06-22T10:17:38;6.87;;;6.00;;
2656;SDS011;1338;48.176;11.792;2023-06-22T10:20:07;6.60;;;6.03;;
2656;SDS011;1338;48.176;11.792;2023-06-22T10:22:39;6.37;;;5.77;;
2656;SDS011;1338;48.176;11.792;2023-06-22T10:25:09;7.33;;;6.53;;
2656;SDS011;1338;48.176;11.792;2023-06-22T10:27:38;7.17;;;6.47;;
2656;SDS011;1338;48.176;11.792;2023-06-22T10:30:08;7.60;;;6.90;;
2656;SDS011;1338;48.176;11.792;2023-06-22T10:32:39;8.60;;;7.23;;
2656;SDS011;1338;48.176;11.792;2023-06-22T10:35:08;8.10;;;6.10;;
2656;SDS011;1338;48.176;11.792;2023-06-22T10:37:37;7.43;;;6.53;;
2656;SDS011;1338;48.176;11.792;2023-06-22T10:40:05;8.60;;;7.53;;
2656;SDS011;1338;48.176;11.792;2023-06-22T10:42:36;8.03;;;6.87;;
2656;SDS011;1338;48.176;11.792;2023-06-22T10:45:05;7.30;;;6.50;;
2656;SDS011;1338;48.176;11.792;2023-06-22T10:47:34;6.87;;;6.17;;
2656;SDS011;1338;48.176;11.792;2023-06-22T10:50:03;8.20;;;7.37;;
2656;SDS011;1338;48.176;11.792;2023-06-22T10:52:32;7.20;;;6.60;;
2656;SDS011;1338;48.176;11.792;2023-06-22T10:55:00;10.70;;;6.70;;
2656;SDS011;1338;48.176;11.792;2023-06-22T10:57:28;7.57;;;6.80;;
2656;SDS011;1338;48.176;11.792;2023-06-22T10:59:57;9.20;;;6.97;;
2656;SDS011;1338;48.176;11.792;2023-06-22T11:02:26;7.17;;;6.57;;
2656;SDS011;1338;48.176;11.792;2023-06-22T11:04:55;8.87;;;6.60;;
2656;SDS011;1338;48.176;11.792;2023-06-22T11:07:26;8.33;;;7.50;;
2656;SDS011;1338;48.176;11.792;2023-06-22T11:09:55;7.57;;;6.80;;
2656;SDS011;1338;48.176;11.792;2023-06-22T11:12:23;7.30;;;6.57;;
2656;SDS011;1338;48.176;11.792;2023-06-22T11:14:51;9.00;;;7.17;;
2656;SDS011;1338;48.176;11.792;2023-06-22T11:17:21;10.23;;;7.43;;
2656;SDS011;1338;48.176;11.792;2023-06-22T11:19:50;6.40;;;5.80;;
2656;SDS011;1338;48.176;11.792;2023-06-22T11:22:18;7.90;;;7.17;;
2656;SDS011;1338;48.176;11.792;2023-06-22T11:24:46;7.70;;;6.93;;
2656;SDS011;1338;48.176;11.792;2023-06-22T11:27:14;7.60;;;6.80;;
2656;SDS011;1338;48.176;11.792;2023-06-22T11:29:43;8.53;;;6.70;;
2656;SDS011;1338;48.176;11.792;2023-06-22T11:32:11;9.90;;;7.00;;
2656;SDS011;1338;48.176;11.792;2023-06-22T11:34:42;6.87;;;6.27;;
2656;SDS011;1338;48.176;11.792;2023-06-22T11:37:10;7.77;;;6.97;;
2656;SDS011;1338;48.176;11.792;2023-06-22T11:39:38;8.00;;;7.20;;
2656;SDS011;1338;48.176;11.792;2023-06-22T11:42:13;7.60;;;6.90;;
2656;SDS011;1338;48.176;11.792;2023-06-22T11:44:41;7.40;;;6.70;;
2656;SDS011;1338;48.176;11.792;2023-06-22T11:47:10;9.73;;;6.60;;
2656;SDS011;1338;48.176;11.792;2023-06-22T11:49:38;6.80;;;6.10;;
2656;SDS011;1338;48.176;11.792;2023-06-22T11:52:08;7.83;;;6.50;;
2656;SDS011;1338;48.176;11.792;2023-06-22T11:54:36;10.57;;;6.77;;
2656;SDS011;1338;48.176;11.792;2023-06-22T11:57:05;6.50;;;5.70;;
2656;SDS011;1338;48.176;11.792;2023-06-22T11:59:33;7.60;;;6.17;;
2656;SDS011;1338;48.176;11.792;2023-06-22T12:02:01;6.50;;;5.90;;
2656;SDS011;1338;48.176;11.792;2023-06-22T12:04:30;7.10;;;6.40;;
2656;SDS011;1338;48.176;11.792;2023-06-22T12:06:59;6.90;;;6.17;;
2656;SDS011;1338;48.176;11.792;2023-06-22T12:09:30;7.57;;;5.83;;
2656;SDS011;1338;48.176;11.792;2023-06-22T12:11:58;7.27;;;6.33;;
2656;SDS011;1338;48.176;11.792;2023-06-22T12:14:26;6.40;;;5.80;;
2656;SDS011;1338;48.176;11.792;2023-06-22T12:16:57;8.80;;;6.53;;
2656;SDS011;1338;48.176;11.792;2023-06-22T12:19:25;6.00;;;5.43;;
2656;SDS011;1338;48.176;11.792;2023-06-22T12:21:53;9.03;;;8.23;;
2656;SDS011;1338;48.176;11.792;2023-06-22T12:24:21;7.27;;;6.57;;
2656;SDS011;1338;48.176;11.792;2023-06-22T12:26:51;7.80;;;5.30;;
2656;SDS011;1338;48.176;11.792;2023-06-22T12:29:21;7.07;;;6.37;;
2656;SDS011;1338;48.176;11.792;2023-06-22T12:31:50;6.60;;;6.00;;
2656;SDS011;1338;48.176;11.792;2023-06-22T12:34:18;6.90;;;6.30;;
2656;SDS011;1338;48.176;11.792;2023-06-22T12:36:46;10.73;;;7.20;;
2656;SDS011;1338;48.176;11.792;2023-06-22T12:39:15;6.20;;;5.70;;
2656;SDS011;1338;48.176;11.792;2023-06-22T12:41:43;6.27;;;5.67;;
2656;SDS011;1338;48.176;11.792;2023-06-22T12:44:12;6.93;;;5.80;;
2656;SDS011;1338;48.176;11.792;2023-06-22T12:46:41;7.60;;;5.67;;
2656;SDS011;1338;48.176;11.792;2023-06-22T12:49:09;7.40;;;6.80;;
2656;SDS011;1338;48.176;11.792;2023-06-22T12:51:39;7.83;;;6.33;;
2656;SDS011;1338;48.176;11.792;2023-06-22T12:54:08;8.30;;;5.97;;
2656;SDS011;1338;48.176;11.792;2023-06-22T12:56:37;6.20;;;5.70;;
2656;SDS011;1338;48.176;11.792;2023-06-22T12:59:05;8.47;;;6.13;;
2656;SDS011;1338;48.176;11.792;2023-06-22T13:01:35;6.57;;;5.97;;
2656;SDS011;1338;48.176;11.792;2023-06-22T13:04:03;5.80;;;5.30;;
2656;SDS011;1338;48.176;11.792;2023-06-22T13:06:32;6.80;;;6.17;;
2656;SDS011;1338;48.176;11.792;2023-06-22T13:09:00;7.40;;;6.03;;
2656;SDS011;1338;48.176;11.792;2023-06-22T13:11:31;7.50;;;6.80;;
2656;SDS011;1338;48.176;11.792;2023-06-22T13:13:59;6.23;;;5.63;;
2656;SDS011;1338;48.176;11.792;2023-06-22T13:16:29;5.73;;;5.23;;
2656;SDS011;1338;48.176;11.792;2023-06-22T13:18:58;6.53;;;5.90;;
2656;SDS011;1338;48.176;11.792;2023-06-22T13:21:26;7.10;;;6.03;;
2656;SDS011;1338;48.176;11.792;2023-06-22T13:23:55;6.07;;;5.47;;
2656;SDS011;1338;48.176;11.792;2023-06-22T13:26:24;7.10;;;5.90;;
2656;SDS011;1338;48.176;11.792;2023-06-22T13:28:52;5.97;;;5.37;;
2656;SDS011;1338;48.176;11.792;2023-06-22T13:31:20;7.73;;;5.40;;
2656;SDS011;1338;48.176;11.792;2023-06-22T13:33:50;7.40;;;5.57;;
2656;SDS011;1338;48.176;11.792;2023-06-22T13:36:20;6.03;;;5.50;;
2656;SDS011;1338;48.176;11.792;2023-06-22T13:38:49;6.40;;;5.77;;
2656;SDS011;1338;48.176;11.792;2023-06-22T13:41:17;9.63;;;6.50;;
2656;SDS011;1338;48.176;11.792;2023-06-22T13:43:45;6.93;;;6.23;;
2656;SDS011;1338;48.176;11.792;2023-06-22T13:46:14;6.53;;;5.70;;
2656;SDS011;1338;48.176;11.792;2023-06-22T13:48:42;7.33;;;5.73;;
2656;SDS011;1338;48.176;11.792;2023-06-22T13:51:10;5.90;;;5.30;;
2656;SDS011;1338;48.176;11.792;2023-06-22T13:53:39;6.63;;;6.03;;
2656;SDS011;1338;48.176;11.792;2023-06-22T13:56:08;5.67;;;5.23;;
2656;SDS011;1338;48.176;11.792;2023-06-22T13:58:36;7.20;;;5.70;;
2656;SDS011;1338;48.176;11.792;2023-06-22T14:01:04;5.87;;;5.30;;
2656;SDS011;1338;48.176;11.792;2023-06-22T14:03:33;6.07;;;5.47;;
2656;SDS011;1338;48.176;11.792;2023-06-22T14:06:01;6.00;;;5.43;;
2656;SDS011;1338;48.176;11.792;2023-06-22T14:08:30;7.30;;;6.60;;
2656;SDS011;1338;48.176;11.792;2023-06-22T14:11:09;6.67;;;5.97;;
2656;SDS011;1338;48.176;11.792;2023-06-22T14:13:37;6.03;;;5.53;;
2656;SDS011;1338;48.176;11.792;2023-06-22T14:16:05;5.33;;;4.93;;
2656;SDS011;1338;48.176;11.792;2023-06-22T14:18:33;6.03;;;5.27;;
2656;SDS011;1338;48.176;11.792;2023-06-22T14:21:02;6.27;;;5.43;;
2656;SDS011;1338;48.176;11.792;2023-06-22T14:23:30;7.87;;;5.80;;
2656;SDS011;1338;48.176;11.792;2023-06-22T14:25:58;6.17;;;5.60;;
2656;SDS011;1338;48.176;11.792;2023-06-22T14:28:27;6.13;;;5.63;;
2656;SDS011;1338;48.176;11.792;2023-06-22T14:30:56;5.90;;;5.40;;
2656;SDS011;1338;48.176;11.792;2023-06-22T14:33:24;6.83;;;6.13;;
2656;SDS011;1338;48.176;11.792;2023-06-22T14:35:52;7.00;;;5.70;;
2656;SDS011;1338;48.176;11.792;2023-06-22T14:38:20;6.90;;;6.30;;
2656;SDS011;1338;48.176;11.792;2023-06-22T14:40:49;5.87;;;5.37;;
2656;SDS011;1338;48.176;11.792;2023-06-22T14:43:38;5.73;;;5.23;;
2656;SDS011;1338;48.176;11.792;2023-06-22T14:46:11;7.27;;;6.30;;
2656;SDS011;1338;48.176;11.792;2023-06-22T14:48:40;6.40;;;5.53;;
2656;SDS011;1338;48.176;11.792;2023-06-22T14:51:08;5.97;;;5.30;;
2656;SDS011;1338;48.176;11.792;2023-06-22T14:53:42;5.67;;;4.97;;
2656;SDS011;1338;48.176;11.792;2023-06-22T14:56:11;6.60;;;5.27;;
2656;SDS011;1338;48.176;11.792;2023-06-22T14:58:43;6.40;;;5.90;;
2656;SDS011;1338;48.176;11.792;2023-06-22T15:01:13;6.83;;;6.23;;
2656;SDS011;1338;48.176;11.792;2023-06-22T15:03:42;5.93;;;5.43;;
2656;SDS011;1338;48.176;11.792;2023-06-22T15:06:10;6.30;;;5.80;;
2656;SDS011;1338;48.176;11.792;2023-06-22T15:08:39;6.37;;;5.70;;
2656;SDS011;1338;48.176;11.792;2023-06-22T15:11:07;6.47;;;5.77;;
2656;SDS011;1338;48.176;11.792;2023-06-22T15:13:38;6.40;;;5.80;;